| Date | Time | Temp. (oF) | Dew Point (oF) | Rel. Hum. (%) | Press. (in.) | Wind Dir. | Wind Speed (mph) | Hourly Rainfall (in.) |
|
|---|---|---|---|---|---|---|---|---|---|
| 1 | 04/02 | 00:00 | 37 | 30 | 77 | 30.19 | N | 0 | 0.00 |
| 2 | 04/01 | 23:00 | 39 | 29 | 68 | 30.20 | SSW | 0 | 0.00 |
| 3 | 04/01 | 22:00 | 42 | 29 | 61 | 30.19 | S | 0 | 0.00 |
| 4 | 04/01 | 21:00 | 47 | 29 | 51 | 30.18 | N | 0 | 0.00 |
| 5 | 04/01 | 20:00 | 48 | 29 | 48 | 30.15 | N | 6 | 0.00 |
| 6 | 04/01 | 19:00 | 51 | 29 | 44 | 30.12 | S | 6 | 0.00 |
| 7 | 04/01 | 18:00 | 52 | 28 | 40 | 30.10 | N | 16 | 0.00 |
| 8 | 04/01 | 17:00 | 54 | 28 | 37 | 30.09 | W | 6 | 0.00 |
| 9 | 04/01 | 16:00 | 53 | 26 | 36 | 30.09 | NNE | 12 | 0.00 |
| 10 | 04/01 | 15:00 | 51 | 25 | 37 | 30.10 | W | 7 | 0.00 |
| 11 | 04/01 | 14:00 | 50 | 24 | 37 | 30.11 | NW | 12 | 0.00 |
| 12 | 04/01 | 13:00 | 47 | 26 | 45 | 30.11 | N | 9 | 0.00 |
| 13 | 04/01 | 12:00 | 45 | 29 | 54 | 30.12 | WSW | 5 | 0.00 |
| 14 | 04/01 | 11:00 | 42 | 27 | 57 | 30.12 | WNW | 8 | 0.00 |
| 15 | 04/01 | 10:00 | 40 | 28 | 62 | 30.11 | NNE | 8 | 0.00 |
| 16 | 04/01 | 09:00 | 37 | 29 | 73 | 30.08 | SSW | 0 | 0.00 |
| 17 | 04/01 | 08:00 | 33 | 28 | 83 | 30.06 | W | 4 | 0.00 |
| 18 | 04/01 | 07:00 | 30 | 26 | 88 | 30.03 | WSW | 0 | 0.00 |
| 19 | 04/01 | 06:00 | 29 | 25 | 88 | 29.99 | S | 0 | 0.00 |
| 20 | 04/01 | 05:00 | 31 | 26 | 82 | 29.95 | W | 0 | 0.00 |
| 21 | 04/01 | 04:00 | 34 | 28 | 80 | 29.92 | NNW | 5 | 0.00 |
| 22 | 04/01 | 03:00 | 34 | 29 | 82 | 29.93 | WNW | 4 | 0.00 |
| 23 | 04/01 | 02:00 | 35 | 29 | 81 | 29.92 | NNW | 5 | 0.00 |
| 24 | 04/01 | 01:00 | 36 | 30 | 81 | 29.92 | WNW | 4 | 0.00 |